createdAt,value
2023-03-25T00:03:51.013Z,12.45
2023-03-25T00:07:55.773Z,12.42
2023-03-25T00:11:58.858Z,12.39
2023-03-25T00:16:03.044Z,12.39
2023-03-25T00:20:10.377Z,12.39
2023-03-25T00:24:17.827Z,12.36
2023-03-25T00:28:20.917Z,12.34
2023-03-25T00:32:24.317Z,12.31
2023-03-25T00:36:27.617Z,12.28
2023-03-25T00:40:34.765Z,12.26
2023-03-25T00:44:38.010Z,12.25
2023-03-25T00:48:41.304Z,12.22
2023-03-25T00:52:44.419Z,12.18
2023-03-25T00:56:49.138Z,12.15
2023-03-25T01:00:52.449Z,12.13
2023-03-25T01:04:57.640Z,12.12
2023-03-25T01:09:02.684Z,12.10
2023-03-25T01:13:07.199Z,12.09
2023-03-25T01:17:10.745Z,12.03
2023-03-25T01:21:13.872Z,12.01
2023-03-25T01:25:17.143Z,12.00
2023-03-25T01:29:24.213Z,12.01
2023-03-25T01:33:27.406Z,12.03
2023-03-25T01:37:34.098Z,12.00
2023-03-25T01:41:48.602Z,11.97
2023-03-25T01:45:54.428Z,11.97
2023-03-25T01:49:57.629Z,11.94
2023-03-25T01:54:00.950Z,11.92
2023-03-25T01:58:10.660Z,11.89
2023-03-25T02:02:18.936Z,11.89
2023-03-25T02:06:28.602Z,11.87
2023-03-25T02:10:31.660Z,11.84
2023-03-25T02:14:37.060Z,11.83
2023-03-25T02:18:49.392Z,11.82
2023-03-25T02:23:13.269Z,11.77
2023-03-25T02:27:27.296Z,11.78
2023-03-25T02:31:57.069Z,11.72
2023-03-25T02:36:56.452Z,11.72
2023-03-25T02:41:09.503Z,11.68
2023-03-25T02:45:16.867Z,11.66
2023-03-25T02:49:24.992Z,11.63
2023-03-25T02:53:33.554Z,11.61
2023-03-25T02:57:41.695Z,11.61
2023-03-25T03:01:45.641Z,11.59
2023-03-25T03:05:53.098Z,11.59
2023-03-25T03:10:06.100Z,11.58
2023-03-25T03:14:29.404Z,11.55
2023-03-25T03:18:45.016Z,11.51
2023-03-25T03:22:54.137Z,11.49
2023-03-25T03:27:01.607Z,11.46
2023-03-25T03:31:13.427Z,11.47
2023-03-25T03:35:40.662Z,11.44
2023-03-25T03:39:45.660Z,11.44
2023-03-25T03:43:52.611Z,11.40
2023-03-25T03:47:59.376Z,11.36
2023-03-25T03:52:08.935Z,11.36
2023-03-25T03:56:19.270Z,11.34
2023-03-25T04:00:27.284Z,11.31
2023-03-25T04:04:34.768Z,11.29
2023-03-25T04:08:47.072Z,11.26
2023-03-25T04:12:55.331Z,11.26
2023-03-25T04:16:59.786Z,11.26
2023-03-25T04:21:04.980Z,11.24
2023-03-25T04:25:08.674Z,11.20
2023-03-25T04:29:13.894Z,11.16
2023-03-25T04:33:17.846Z,11.16
2023-03-25T04:37:23.995Z,11.13
2023-03-25T04:41:28.737Z,11.09
2023-03-25T04:45:36.524Z,11.07
2023-03-25T04:49:39.508Z,11.06
2023-03-25T04:53:44.206Z,11.05
2023-03-25T04:57:47.786Z,11.07
2023-03-25T05:01:52.851Z,11.05
2023-03-25T05:05:56.523Z,11.02
2023-03-25T05:10:01.793Z,11.02
2023-03-25T05:14:05.013Z,10.99
2023-03-25T05:18:10.663Z,11.00
2023-03-25T05:22:14.549Z,10.94
2023-03-25T05:26:19.456Z,10.93
2023-03-25T05:30:22.592Z,10.90
2023-03-25T05:34:25.735Z,10.87
2023-03-25T05:38:28.769Z,10.85
2023-03-25T05:42:34.930Z,10.83
2023-03-25T05:46:38.057Z,10.85
2023-03-25T05:50:42.954Z,10.86
2023-03-25T05:54:46.420Z,10.90
2023-03-25T05:58:52.677Z,10.94
2023-03-25T06:02:55.771Z,10.97
2023-03-25T06:06:58.931Z,11.00
2023-03-25T06:11:02.243Z,11.02
2023-03-25T06:15:08.665Z,11.07
2023-03-25T06:19:11.646Z,11.09
2023-03-25T06:23:15.020Z,11.08
2023-03-25T06:27:19.785Z,11.07
2023-03-25T06:31:26.913Z,11.10
2023-03-25T06:35:30.460Z,11.13
2023-03-25T06:39:33.823Z,11.10
2023-03-25T06:43:42.189Z,11.10
2023-03-25T06:47:58.396Z,11.09
2023-03-25T06:52:01.379Z,11.11
2023-03-25T06:56:04.623Z,11.12
2023-03-25T07:00:09.878Z,11.13
2023-03-25T07:04:14.295Z,11.16
2023-03-25T07:08:17.509Z,11.21
2023-03-25T07:12:20.619Z,11.22
2023-03-25T07:16:24.725Z,11.23
2023-03-25T07:20:29.161Z,11.21
2023-03-25T07:24:32.141Z,11.23
2023-03-25T07:28:35.457Z,11.25
2023-03-25T07:32:38.635Z,11.25
2023-03-25T07:36:43.080Z,11.27
2023-03-25T07:40:49.899Z,11.30
2023-03-25T07:44:53.552Z,11.32
2023-03-25T07:48:56.543Z,11.34
2023-03-25T07:53:01.008Z,11.39
2023-03-25T07:57:03.991Z,11.44
2023-03-25T08:01:08.039Z,11.50
2023-03-25T08:05:12.471Z,11.58
2023-03-25T08:09:16.960Z,11.63
2023-03-25T08:13:20.281Z,11.68
2023-03-25T08:17:24.516Z,11.70
2023-03-25T08:21:27.958Z,11.70
2023-03-25T08:25:32.568Z,11.68
2023-03-25T08:29:35.666Z,11.69
2023-03-25T08:33:41.298Z,11.66
2023-03-25T08:37:44.394Z,11.67
2023-03-25T08:41:48.902Z,11.71
2023-03-25T08:45:51.991Z,11.73
2023-03-25T08:49:55.315Z,11.82
2023-03-25T08:53:58.324Z,11.81
2023-03-25T08:58:06.268Z,11.84
2023-03-25T09:02:12.368Z,11.85
2023-03-25T09:06:15.729Z,11.85
2023-03-25T09:10:18.954Z,11.89
2023-03-25T09:14:23.386Z,11.91
2023-03-25T09:18:27.117Z,11.92
2023-03-25T09:22:30.240Z,11.98
2023-03-25T09:26:33.318Z,12.00
2023-03-25T09:30:37.800Z,11.98
2023-03-25T09:34:41.085Z,12.01
2023-03-25T09:38:44.156Z,12.05
2023-03-25T09:43:13.979Z,12.03
2023-03-25T09:47:21.405Z,11.99
2023-03-25T09:51:27.999Z,12.01
2023-03-25T09:55:34.341Z,12.01
2023-03-25T09:59:43.588Z,12.06
2023-03-25T10:03:57.024Z,12.10
2023-03-25T10:08:13.462Z,12.14
2023-03-25T10:12:30.849Z,12.19
2023-03-25T10:16:45.262Z,12.22
2023-03-25T10:20:55.788Z,12.29
2023-03-25T10:25:02.117Z,12.31
2023-03-25T10:29:11.400Z,12.36
2023-03-25T10:33:21.910Z,12.38
2023-03-25T10:37:31.594Z,12.38
2023-03-25T10:41:37.789Z,12.43
2023-03-25T10:45:42.935Z,12.45
2023-03-25T10:49:48.059Z,12.48
2023-03-25T10:53:53.389Z,12.45
2023-03-25T10:57:57.517Z,12.45
2023-03-25T11:02:01.993Z,12.43
2023-03-25T11:06:05.836Z,12.47
2023-03-25T11:10:18.690Z,12.49
2023-03-25T11:14:25.530Z,12.52
2023-03-25T11:18:31.568Z,12.52
2023-03-25T11:22:38.448Z,12.58
2023-03-25T11:26:43.476Z,12.60
2023-03-25T11:31:13.272Z,12.67
2023-03-25T11:35:18.861Z,12.77
2023-03-25T11:39:30.332Z,12.80
2023-03-25T11:43:38.264Z,12.87
2023-03-25T11:47:42.212Z,12.94
2023-03-25T11:51:45.445Z,13.00
2023-03-25T11:55:51.785Z,13.12
2023-03-25T12:00:09.358Z,13.16
2023-03-25T12:04:18.398Z,13.09
2023-03-25T12:08:21.618Z,13.02
2023-03-25T12:12:44.162Z,12.93
2023-03-25T12:16:55.129Z,12.86
2023-03-25T12:21:07.632Z,12.82
2023-03-25T12:25:23.160Z,12.80
2023-03-25T12:29:41.906Z,12.76
2023-03-25T12:33:58.295Z,12.75
2023-03-25T12:38:22.577Z,12.79
2023-03-25T12:42:37.071Z,12.87
2023-03-25T12:47:02.882Z,12.97
2023-03-25T12:51:18.361Z,13.10
2023-03-25T12:55:51.500Z,13.23
2023-03-25T13:00:14.893Z,13.35
2023-03-25T13:04:29.387Z,13.50
2023-03-25T13:08:37.381Z,13.69
2023-03-25T13:12:44.569Z,13.86
2023-03-25T13:16:52.046Z,14.02
2023-03-25T13:21:09.049Z,14.19
2023-03-25T13:25:28.958Z,14.34
2023-03-25T13:29:38.254Z,14.41
2023-03-25T13:33:46.868Z,14.38
2023-03-25T13:37:53.067Z,14.35
2023-03-25T13:42:05.824Z,14.34
2023-03-25T13:46:11.809Z,14.34
2023-03-25T13:50:19.425Z,14.33
2023-03-25T13:54:28.656Z,14.25
2023-03-25T13:58:52.747Z,14.21
2023-03-25T14:03:41.355Z,14.14
2023-03-25T14:08:21.508Z,14.10
2023-03-25T14:12:31.522Z,14.01
2023-03-25T14:16:41.888Z,13.93
2023-03-25T14:20:46.083Z,13.83
2023-03-25T14:24:51.120Z,13.83
2023-03-25T14:28:58.144Z,13.78
2023-03-25T14:33:04.180Z,13.74
2023-03-25T14:37:30.615Z,13.74
2023-03-25T14:41:59.387Z,13.79
2023-03-25T14:46:07.059Z,13.78
2023-03-25T14:50:32.966Z,13.65
2023-03-25T14:54:36.813Z,13.49
2023-03-25T14:58:41.848Z,13.39
2023-03-25T15:02:50.792Z,13.32
2023-03-25T15:06:55.464Z,13.30
2023-03-25T15:11:08.033Z,13.33
2023-03-25T15:15:28.496Z,13.31
2023-03-25T15:19:51.527Z,13.35
2023-03-25T15:24:08.475Z,13.42
2023-03-25T15:28:20.320Z,13.50
2023-03-25T15:32:38.392Z,13.54
2023-03-25T15:37:02.403Z,13.50
2023-03-25T15:41:32.777Z,13.43
2023-03-25T15:46:05.772Z,13.37
2023-03-25T15:50:31.901Z,13.33
2023-03-25T15:54:39.543Z,13.33
2023-03-25T15:58:51.152Z,13.30
2023-03-25T16:02:59.644Z,13.28
2023-03-25T16:07:06.988Z,13.28
2023-03-25T16:11:24.102Z,13.32
2023-03-25T16:15:31.190Z,13.29
2023-03-25T16:19:40.001Z,13.27
2023-03-25T16:23:43.192Z,13.28
2023-03-25T16:27:48.874Z,13.24
2023-03-25T16:31:56.529Z,13.15
2023-03-25T16:36:01.365Z,13.07
2023-03-25T16:40:07.243Z,13.00
2023-03-25T16:44:16.586Z,12.89
2023-03-25T16:48:27.999Z,12.87
2023-03-25T16:52:35.546Z,12.66
2023-03-25T16:56:39.738Z,12.34
2023-03-25T17:00:43.941Z,12.04
2023-03-25T17:04:48.444Z,11.88
2023-03-25T17:08:53.561Z,11.72
2023-03-25T17:13:02.297Z,11.64
2023-03-25T17:17:12.440Z,11.56
2023-03-25T17:21:26.643Z,11.47
2023-03-25T17:25:33.382Z,11.29
2023-03-25T17:29:50.863Z,11.03
2023-03-25T17:33:59.041Z,10.82
2023-03-25T17:38:03.706Z,10.70
2023-03-25T17:42:08.865Z,10.53
2023-03-25T17:46:15.027Z,10.38
2023-03-25T17:50:20.084Z,10.32
2023-03-25T17:54:24.754Z,10.22
2023-03-25T17:58:27.909Z,10.14
2023-03-25T18:02:31.125Z,10.08
2023-03-25T18:06:34.133Z,10.03
2023-03-25T18:10:39.565Z,9.98
2023-03-25T18:14:44.002Z,9.92
2023-03-25T18:18:47.264Z,9.86
2023-03-25T18:22:52.484Z,9.81
2023-03-25T18:26:58.114Z,9.79
2023-03-25T18:31:01.264Z,9.74
2023-03-25T18:35:04.575Z,9.71
2023-03-25T18:39:08.443Z,9.67
2023-03-25T18:43:12.888Z,9.66
2023-03-25T18:47:15.877Z,9.62
2023-03-25T18:51:18.939Z,9.58
2023-03-25T18:55:22.331Z,9.55
2023-03-25T18:59:26.768Z,9.49
2023-03-25T19:03:31.783Z,9.45
2023-03-25T19:07:42.550Z,9.39
2023-03-25T19:11:52.106Z,9.36
2023-03-25T19:15:56.878Z,9.33
2023-03-25T19:19:59.802Z,9.33
2023-03-25T19:24:02.992Z,9.29
2023-03-25T19:28:06.721Z,9.23
2023-03-25T19:32:11.345Z,9.21
2023-03-25T19:36:15.911Z,9.16
2023-03-25T19:40:22.167Z,9.11
2023-03-25T19:44:25.424Z,9.02
2023-03-25T19:48:30.739Z,8.93
2023-03-25T19:52:33.745Z,8.89
2023-03-25T19:56:37.070Z,8.87
2023-03-25T20:00:40.122Z,8.88
2023-03-25T20:04:44.640Z,8.84
2023-03-25T20:08:47.653Z,8.83
2023-03-25T20:12:51.170Z,8.83
2023-03-25T20:16:54.168Z,8.83
2023-03-25T20:20:58.882Z,8.88
2023-03-25T20:25:02.053Z,8.89
2023-03-25T20:29:05.325Z,8.98
2023-03-25T20:33:08.355Z,8.99
2023-03-25T20:37:12.890Z,9.00
2023-03-25T20:41:16.659Z,8.96
2023-03-25T20:45:21.372Z,8.90
2023-03-25T20:49:24.411Z,8.81
2023-03-25T20:53:30.207Z,8.77
2023-03-25T20:57:33.259Z,8.76
2023-03-25T21:01:36.769Z,8.72
2023-03-25T21:05:40.805Z,8.67
2023-03-25T21:09:45.514Z,8.64
2023-03-25T21:13:48.531Z,8.61
2023-03-25T21:17:51.828Z,8.61
2023-03-25T21:21:55.579Z,8.61
2023-03-25T21:26:01.201Z,8.58
2023-03-25T21:30:04.361Z,8.58
2023-03-25T21:34:07.778Z,8.57
2023-03-25T21:38:10.828Z,8.56
2023-03-25T21:42:15.912Z,8.53
2023-03-25T21:46:19.121Z,8.48
2023-03-25T21:50:22.776Z,8.46
2023-03-25T21:54:26.505Z,8.43
2023-03-25T21:58:32.188Z,8.40
2023-03-25T22:02:35.261Z,8.42
2023-03-25T22:06:38.428Z,8.43
2023-03-25T22:10:41.437Z,8.47
2023-03-25T22:14:45.961Z,8.47
2023-03-25T22:18:49.389Z,8.46
2023-03-25T22:22:53.804Z,8.45
2023-03-25T22:26:56.789Z,8.44
2023-03-25T22:31:01.511Z,8.43
2023-03-25T22:35:04.951Z,8.41
2023-03-25T22:39:08.389Z,8.40
2023-03-25T22:43:12.191Z,8.37
2023-03-25T22:47:16.702Z,8.36
2023-03-25T22:51:22.012Z,8.39
2023-03-25T22:55:25.082Z,8.36
2023-03-25T22:59:28.143Z,8.35
2023-03-25T23:03:33.305Z,8.35
2023-03-25T23:07:36.368Z,8.35
2023-03-25T23:11:39.902Z,8.35
2023-03-25T23:15:42.968Z,8.37
2023-03-25T23:19:47.816Z,8.37
2023-03-25T23:23:53.889Z,8.40
2023-03-25T23:27:58.236Z,8.42
2023-03-25T23:32:01.238Z,8.40
2023-03-25T23:36:06.982Z,8.42
2023-03-25T23:40:12.549Z,8.44
2023-03-25T23:44:15.954Z,8.49
2023-03-25T23:48:19.054Z,8.49
2023-03-25T23:52:23.753Z,8.52
2023-03-25T23:56:26.854Z,8.55
